Hauptseite
METAR-TAF:

METAR-TAF

Flughäfen :

Fliegerhorst Nörvenich

Nörvenich, Deutschland

Breite: 50-50N, Länge: 006-40E, Höhe: 118 m

Beobachtung

Neuester Wetterbericht von vor 49 Minuten, um 03:20 UTC
Wind 7 kt aus Süd
Temperatur 12°C
Luftfeuchtigkeit 88%
Luftdruck 1027 hPa
Sichtweite 10 km oder mehr
Aufgelockert bewölkt in der Höhe von 22000 ft

METAR: ETNN 130320Z 19007KT 9999 SCT220 12/10 Q1027 BLU+

Zeit: 06:09 (04:09 UTC)

Prognose

Neuester Wetterbericht von vor 20 Stunden und 51 Minuten, um 07:18 UTC
Gültige Prognose vom 12 um 08 UTC bis 12 um 17 UTC
Wind 7 kt aus Süd/Südwest
Sichtweite 10 km oder mehr
Durchbrochene Bewölkung in der Höhe von 2000 ft
Übergehend zu
vom 12 um 09 UTC bis 12 um 11 UTC
Wind 10 kt aus West
Sichtweite 10 km oder mehr
Durchbrochene Bewölkung in der Höhe von 3100 ft

TAF: ETNN 120718Z 1208/1217 21007KT 9999 NSW BKN020 BECMG 1209/1211 26010KT 9999 NSW BKN031

Wetterbeobachtungen und Prognosen von mehr als 4000 Flughäfen (METAR und TAF Bericht).

Die verfügbaren Stationen werden durch gelbe und rote Markierungen auf der Karte dargestellt.

Führen Sie die Maus auf sie, um den Namen der Station zu sehen.

Darauf klicken, um die Beobachtung von Wetterbeobachtungen und Prognosen zu sehen.

Um die Karte zu ändern : klicken Sie auf den grünen Tasten mit einem schwarzen Kreuz Zum Vergrößern, auf den grünen Button mit einem Gedankenstrich zu verkleinern, oder auf die grünen Pfeile für benachbarte Karten.


METAR-TAF: